Relevés horaires Cimetta (Suisse)


Relevés horaires à Cimetta - Vendredi 21 Sept. 2018
Heure UTC1 Température [°C] Vent [km/h] Hum. [%] Pres.4 [hPa] Visi. [Km] Nébu. [octa] Préc.5 [mm] Cond.
2m. Res. Ros. Dir.2 Vit. Moy. Raf.3
23:00 12.8 12.8 11.0 ENE 1.9 -- -- 89 850 -- -- -- --
22:00 12.7 12.7 10.9 S 5.6 -- -- 89 850 -- -- -- --
21:00 12.9 12.9 10.7 SSE 3.7 -- 9.3 86 850(0.5/3h) -- -- -- --
20:00 13.0 13.0 11.0 SSE 3.7 -- -- 88 850 -- -- -- --
19:00 13.0 13 12.1 OSO 5.6 -- -- 94 850 -- -- -- --
18:00 12.6 12.6 11.6 SSE 3.7 -- 24.1 94 850(-0.2/3h) -- -- 0.1/12h
--
17:00 13.1 13.1 11.6 SSO 3.7 -- -- 91 850 -- -- -- --
16:00 13.6 13 11.9 SO 9.3 -- -- 89 850 -- -- -- --
15:00 13.5 12.9 12.2 SSO 9.3 -- 24.1 92 850(-0.6/3h) -- -- -- --
14:00 13.7 13.5 11.2 SSO 7.4 -- -- 85 850 -- -- -- --
13:00 16.1 16.1 12.2 S 7.4 -- -- 78 850 -- -- -- --
12:00 16.7 16.7 12.2 S 9.3 -- 18.5 75 850(-0.6/3h) -- -- 0.1/6h
--
11:00 17.9 17.9 13.4 ESE 7.4 -- -- 75 850 -- -- -- --
10:00 16.0 16.0 12.0 SSO 5.6 -- -- 77 850 -- -- -- --
09:00 15.2 15.2 11.3 S 5.6 -- 13.0 78 850(0.1/3h) -- -- -- --
08:00 14.0 14.0 13.1 ENE 3.7 -- -- 94 850 -- -- -- --
07:00 13.4 13.4 12.6 ENE 3.7 -- -- 95 850 -- -- -- --
06:00 12.4 12.4 12.2 E 3.7 -- 7.4 99 850(-0.4/3h) -- -- 0.3/12h
0.3/24h
--
05:00 12.0 12.0 11.7 ENE 3.7 -- -- 98 850 -- -- -- --
04:00 12.1 12 11.8 NE 5.6 -- -- 98 850 -- -- -- --
03:00 11.9 11.9 11.5 NE 3.7 -- 7.4 97 850(-1.0/3h) -- -- -- --
02:00 12.1 12.1 11.8 ENE 3.7 -- -- 98 850 -- -- -- --
01:00 12.4 12.4 12.0 NE 3.7 -- -- 97 850 -- -- -- --
00:00 12.7 12.7 12.0 N 0.0 -- 13.0 96 850(-0.5/3h) -- -- 0/6h
--

1 Coordinated Universal Time. Actuellement il est 19:00 locale et 17:00 UTC.

2 Le vent souffle depuis la direction indiquée vers la direction oposée.

3 Les rafales max. sont disponible 40 min après l'heure du relevé.

4 Pour les stations d'altitude (plus de 600m) le géopotentiel du niveau le plus proche de la pression obligatoire est indiqué.

5 Les stations disposant d'un diffuseur peuvent indiquer "trace". Cela signifie que des précipitations ont touchés le sol mais que la quantité est inférieure à 0.1 mm.

Récapitulatif de la journée
Température [°C] Vent [km/h] Ensoleillement4 [h] Precipitations totale5 [mm] Pression [Hpa]
Min1 Max.2 Moy.3 Max. Min Max.
11.8 19.0 0 24.1 5 h 54 min 0.1 850.0 850.0

1 Température minimale relevée entre 18:00 UTC la veille et 18:00 UTC le jour donné.

2 Température maximale relevée entre 06:00 UTC le jour donné et 06:00 UTC le lendemain.

3 Vent moyen de la journée basé sur les relevés horaires.

4 Ensoleillement en heures relevé entre 06:00 UTC la veille et 06:00 UTC le jour donné.

5 Précipitations totales tombées entre 06:00 UTC la jour donné et 06:00 UTC le lendemain.

Graphiques horaires